Main page
METAR-TAF:

METAR-TAF

Airports :

Kemi-Tornio Airport

Kemi, Finland

latitude: 65-47N, longitude: 024-35E, elevation: 15 m

Current weather observation

The report was made 38 minutes ago, at 22:20 UTC
Wind 8 kt from the South/Southwest
Temperature 3°C
Humidity 100%
Pressure 1030 hPa
Visibility: 4100 m
Overcast at a height of 100 ft
mist

METAR: EFKE 212220Z AUTO 20008KT 4100 BR OVC001 03/03 Q1030

Time: 00:58 (22:58 UTC)

Forecast

The report was made 5 hours and 31 minutes ago, at 17:27 UTC
Forecast valid from 21 at 18 UTC to 21 at 20 UTC
Wind 7 kt from the South
Visibility: 2000 m
Overcast at a height of 200 ft
mist
Temporary
from 21 at 18 UTC to 21 at 20 UTC
Visibility: 0500 m
at a height of 100 ft
fog

TAF: EFKE 211727Z 2118/2120 19007KT 2000 BR OVC002 TEMPO 2118/2120 0500 FG VV001

Weather observations and forecasts of more than 4000 airports (METAR and TAF reports).

The available stations are represented by yellow and red dots on the map.

Hover mouse over dot to see the name of the station.

Then click to see weather observations and forecasts.

To change the map : click on the green buttons with a black cross to zoom in, on the green button with a dash to zoom out, or on the green arrows for adjacent maps.


METAR-TAF: